createdAt,value
2017-11-11T00:00:03.894Z,4.5
2017-11-11T00:05:03.310Z,4.5
2017-11-11T00:10:02.493Z,4.3
2017-11-11T00:15:03.002Z,4.3
2017-11-11T00:20:02.558Z,4.0
2017-11-11T00:25:03.235Z,4.0
2017-11-11T00:30:02.858Z,4.0
2017-11-11T00:35:02.423Z,4.0
2017-11-11T00:40:03.034Z,4.3
2017-11-11T00:45:02.761Z,4.5
2017-11-11T00:50:02.402Z,4.5
2017-11-11T00:55:02.872Z,4.5
2017-11-11T01:00:03.312Z,4.5
2017-11-11T01:05:03.039Z,4.5
2017-11-11T01:10:02.841Z,4.5
2017-11-11T01:15:02.476Z,4.5
2017-11-11T01:20:03.240Z,4.5
2017-11-11T01:25:02.777Z,4.5
2017-11-11T01:30:02.479Z,4.5
2017-11-11T01:35:03.018Z,4.5
2017-11-11T01:40:02.712Z,4.3
2017-11-11T01:45:02.438Z,4.0
2017-11-11T01:50:03.006Z,4.0
2017-11-11T01:55:02.640Z,4.0
2017-11-11T02:00:03.138Z,4.0
2017-11-11T02:05:02.807Z,4.3
2017-11-11T02:10:02.655Z,4.3
2017-11-11T02:15:03.109Z,4.3
2017-11-11T02:20:02.626Z,4.3
2017-11-11T02:25:03.171Z,4.3
2017-11-11T02:30:02.862Z,4.3
2017-11-11T02:35:02.609Z,4.3
2017-11-11T02:40:03.324Z,4.3
2017-11-11T02:45:02.985Z,4.0
2017-11-11T02:50:02.728Z,4.0
2017-11-11T02:55:02.471Z,4.3
2017-11-11T03:00:03.158Z,4.3
2017-11-11T03:05:02.648Z,4.5
2017-11-11T03:10:02.466Z,4.5
2017-11-11T03:15:02.972Z,4.3
2017-11-11T03:20:02.688Z,4.3
2017-11-11T03:25:03.266Z,4.3
2017-11-11T03:30:02.955Z,4.5
2017-11-11T03:35:02.497Z,4.5
2017-11-11T03:40:02.971Z,4.5
2017-11-11T03:45:02.676Z,4.5
2017-11-11T03:50:03.229Z,4.5
2017-11-11T03:55:02.911Z,4.5
2017-11-11T04:00:02.456Z,4.5
2017-11-11T04:05:02.981Z,4.5
2017-11-11T04:10:02.624Z,4.5
2017-11-11T04:15:03.134Z,4.5
2017-11-11T04:20:02.751Z,4.5
2017-11-11T04:25:02.457Z,4.5
2017-11-11T04:30:03.092Z,4.8
2017-11-11T04:35:02.551Z,5.0
2017-11-11T04:40:03.131Z,5.0
2017-11-11T04:45:02.848Z,5.4
2017-11-11T04:50:02.523Z,5.8
2017-11-11T04:55:03.175Z,5.9
2017-11-11T05:00:02.860Z,5.8
2017-11-11T05:05:02.471Z,5.8
2017-11-11T05:10:03.394Z,5.8
2017-11-11T05:15:02.839Z,5.8
2017-11-11T05:20:02.550Z,5.5
2017-11-11T05:25:03.272Z,5.5
2017-11-11T05:30:02.684Z,5.5
2017-11-11T05:35:03.288Z,5.5
2017-11-11T05:40:02.833Z,5.5
2017-11-11T05:45:03.381Z,5.8
2017-11-11T05:50:02.849Z,5.8
2017-11-11T05:55:03.340Z,5.8
2017-11-11T06:00:03.112Z,5.8
2017-11-11T06:05:02.581Z,5.9
2017-11-11T06:10:03.084Z,5.8
2017-11-11T06:15:02.719Z,5.9
2017-11-11T06:20:02.379Z,5.9
2017-11-11T06:25:02.964Z,5.9
2017-11-11T06:30:02.475Z,5.9
2017-11-11T06:35:03.110Z,6.0
2017-11-11T06:40:02.869Z,6.0
2017-11-11T06:45:02.401Z,5.9
2017-11-11T06:50:02.925Z,5.9
2017-11-11T06:55:02.365Z,5.9
2017-11-11T07:00:02.814Z,5.9
2017-11-11T07:05:02.476Z,5.8
2017-11-11T07:10:03.023Z,5.8
2017-11-11T07:15:02.590Z,5.8
2017-11-11T07:20:03.272Z,5.5
2017-11-11T07:25:02.939Z,5.8
2017-11-11T07:30:02.656Z,5.5
2017-11-11T07:35:02.389Z,5.5
2017-11-11T07:40:02.921Z,5.8
2017-11-11T07:45:02.475Z,5.8
2017-11-11T07:50:03.068Z,5.8
2017-11-11T07:55:02.700Z,5.8
2017-11-11T08:00:03.541Z,5.8
2017-11-11T08:05:03.234Z,5.8
2017-11-11T08:10:02.769Z,5.8
2017-11-11T08:15:02.501Z,5.8
2017-11-11T08:20:03.111Z,5.8
2017-11-11T08:25:02.763Z,5.8
2017-11-11T08:30:02.454Z,5.9
2017-11-11T08:35:03.166Z,5.9
2017-11-11T08:40:02.749Z,6.0
2017-11-11T08:45:03.287Z,6.0
2017-11-11T08:50:02.949Z,6.0
2017-11-11T08:55:02.685Z,6.0
2017-11-11T09:00:03.331Z,6.0
2017-11-11T09:05:02.995Z,6.0
2017-11-11T09:10:02.743Z,6.1
2017-11-11T09:15:03.265Z,6.1
2017-11-11T09:20:02.811Z,6.1
2017-11-11T09:25:03.370Z,6.1
2017-11-11T09:30:02.982Z,6.4
2017-11-11T09:35:02.636Z,6.4
2017-11-11T09:40:03.143Z,6.4
2017-11-11T09:45:02.844Z,6.5
2017-11-11T09:50:03.442Z,6.5
2017-11-11T09:55:02.953Z,6.4
2017-11-11T10:00:02.636Z,6.5
2017-11-11T10:05:02.400Z,6.5
2017-11-11T10:10:03.230Z,6.5
2017-11-11T10:15:02.868Z,6.5
2017-11-11T10:20:02.481Z,6.5
2017-11-11T10:25:03.110Z,6.6
2017-11-11T10:30:02.719Z,6.6
2017-11-11T10:35:03.311Z,6.6
2017-11-11T10:40:02.853Z,6.6
2017-11-11T10:45:02.388Z,6.6
2017-11-11T10:50:03.006Z,6.6
2017-11-11T10:55:02.560Z,6.9
2017-11-11T11:00:03.143Z,6.9
2017-11-11T11:05:02.776Z,7.0
2017-11-11T11:10:02.366Z,7.0
2017-11-11T11:15:03.043Z,6.9
2017-11-11T11:20:02.787Z,6.9
2017-11-11T11:25:03.372Z,7.0
2017-11-11T11:30:03.105Z,7.1
2017-11-11T11:35:02.851Z,7.1
2017-11-11T11:40:02.622Z,7.1
2017-11-11T11:45:03.196Z,7.1
2017-11-11T11:50:02.743Z,7.1
2017-11-11T11:55:02.397Z,7.4
2017-11-11T12:00:02.953Z,7.1
2017-11-11T12:05:02.644Z,7.1
2017-11-11T12:10:02.487Z,7.1
2017-11-11T12:15:03.196Z,7.1
2017-11-11T12:20:02.791Z,7.1
2017-11-11T12:25:02.456Z,7.1
2017-11-11T12:30:02.915Z,7.4
2017-11-11T12:35:02.483Z,7.4
2017-11-11T12:40:03.289Z,7.4
2017-11-11T12:45:02.981Z,7.4
2017-11-11T12:50:02.488Z,7.1
2017-11-11T12:55:03.068Z,7.1
2017-11-11T13:00:02.615Z,7.1
2017-11-11T13:05:02.410Z,7.1
2017-11-11T13:10:03.229Z,7.4
2017-11-11T13:15:02.755Z,7.5
2017-11-11T13:20:02.511Z,7.9
2017-11-11T13:25:03.168Z,8.0
2017-11-11T13:30:02.805Z,8.1
2017-11-11T13:35:02.546Z,8.1
2017-11-11T13:40:03.125Z,8.5
2017-11-11T13:45:02.724Z,8.6
2017-11-11T13:50:02.442Z,8.6
2017-11-11T13:55:02.999Z,8.5
2017-11-11T14:00:02.728Z,8.3
2017-11-11T14:05:02.392Z,7.6
2017-11-11T14:10:03.149Z,7.0
2017-11-11T14:15:02.880Z,6.0
2017-11-11T14:20:02.400Z,5.8
2017-11-11T14:25:03.041Z,5.8
2017-11-11T14:30:02.533Z,5.8
2017-11-11T14:35:03.253Z,5.8
2017-11-11T14:40:02.739Z,5.8
2017-11-11T14:45:03.347Z,5.8
2017-11-11T14:50:02.866Z,5.9
2017-11-11T14:55:02.374Z,5.8
2017-11-11T15:00:02.806Z,5.8
2017-11-11T15:05:03.368Z,5.8
2017-11-11T15:10:02.880Z,5.5
2017-11-11T15:15:02.394Z,5.8
2017-11-11T15:25:02.509Z,5.5
2017-11-11T15:30:03.096Z,5.4
2017-11-11T15:35:02.569Z,5.4
2017-11-11T15:40:03.290Z,5.0
2017-11-11T15:45:02.748Z,5.3
2017-11-11T15:50:02.487Z,5.3
2017-11-11T15:55:03.128Z,5.0
2017-11-11T16:00:02.891Z,5.0
2017-11-11T16:05:02.447Z,5.0
2017-11-11T16:10:03.259Z,4.8
2017-11-11T16:15:02.770Z,4.8
2017-11-11T16:20:03.318Z,4.8
2017-11-11T16:25:02.795Z,4.8
2017-11-11T16:30:03.357Z,4.8
2017-11-11T16:35:03.073Z,4.8
2017-11-11T16:40:02.675Z,4.8
2017-11-11T16:45:03.130Z,4.5
2017-11-11T16:50:02.904Z,4.8
2017-11-11T16:55:02.662Z,4.8
2017-11-11T17:00:03.271Z,5.0
2017-11-11T17:05:02.942Z,5.0
2017-11-11T17:10:02.547Z,5.0
2017-11-11T17:15:03.076Z,5.0
2017-11-11T17:20:02.603Z,5.0
2017-11-11T17:25:03.370Z,5.0
2017-11-11T17:30:03.057Z,5.0
2017-11-11T17:35:02.777Z,5.0
2017-11-11T17:40:02.532Z,4.8
2017-11-11T17:45:03.195Z,4.8
2017-11-11T17:50:02.903Z,4.8
2017-11-11T17:55:02.575Z,4.8
2017-11-11T18:00:03.248Z,4.5
2017-11-11T18:05:03.059Z,4.5
2017-11-11T18:10:02.822Z,4.5
2017-11-11T18:15:02.490Z,4.3
2017-11-11T18:20:03.194Z,4.3
2017-11-11T18:25:02.908Z,4.3
2017-11-11T18:30:02.589Z,4.0
2017-11-11T18:35:03.391Z,4.0
2017-11-11T18:40:03.135Z,4.0
2017-11-11T18:45:02.698Z,4.0
2017-11-11T18:50:02.431Z,4.0
2017-11-11T18:55:02.972Z,4.0
2017-11-11T19:00:02.484Z,4.5
2017-11-11T19:05:02.986Z,4.5
2017-11-11T19:10:02.762Z,4.5
2017-11-11T19:15:03.299Z,4.3
2017-11-11T19:20:02.913Z,4.3
2017-11-11T19:25:02.447Z,4.0
2017-11-11T19:30:03.114Z,4.0
2017-11-11T19:35:02.845Z,4.0
2017-11-11T19:40:02.473Z,4.0
2017-11-11T19:45:03.124Z,4.0
2017-11-11T19:50:02.665Z,4.0
2017-11-11T19:55:03.177Z,3.7
2017-11-11T20:00:02.616Z,3.7
2017-11-11T20:05:03.087Z,3.7
2017-11-11T20:10:02.864Z,3.7
2017-11-11T20:15:02.616Z,3.7
2017-11-11T20:20:02.406Z,3.7
2017-11-11T20:25:03.112Z,3.7
2017-11-11T20:30:02.769Z,4.0
2017-11-11T20:35:03.297Z,3.7
2017-11-11T20:40:02.897Z,4.0
2017-11-11T20:45:02.470Z,4.0
2017-11-11T20:50:03.084Z,4.0
2017-11-11T20:55:02.798Z,3.7
2017-11-11T21:00:03.313Z,3.7
2017-11-11T21:05:03.044Z,3.7
2017-11-11T21:10:02.786Z,3.7
2017-11-11T21:15:03.312Z,4.0
2017-11-11T21:20:02.961Z,4.0
2017-11-11T21:25:02.679Z,4.0
2017-11-11T21:30:03.218Z,4.0
2017-11-11T21:35:03.010Z,4.0
2017-11-11T21:40:02.550Z,4.0
2017-11-11T21:45:03.195Z,4.0
2017-11-11T21:50:02.824Z,4.0
2017-11-11T21:55:02.506Z,4.0
2017-11-11T22:00:03.406Z,4.0
2017-11-11T22:05:03.098Z,4.0
2017-11-11T22:10:02.810Z,4.0
2017-11-11T22:15:02.524Z,4.0
2017-11-11T22:20:03.056Z,4.0
2017-11-11T22:25:02.565Z,4.0
2017-11-11T22:30:03.305Z,4.3
2017-11-11T22:35:02.949Z,4.3
2017-11-11T22:40:02.708Z,4.3
2017-11-11T22:45:03.287Z,4.5
2017-11-11T22:50:03.033Z,4.5
2017-11-11T22:55:02.752Z,4.8
2017-11-11T23:00:02.441Z,4.8
2017-11-11T23:05:03.088Z,4.5
2017-11-11T23:10:02.713Z,4.5
2017-11-11T23:15:02.421Z,4.3
2017-11-11T23:20:03.007Z,4.3
2017-11-11T23:25:02.565Z,4.3
2017-11-11T23:30:03.273Z,4.0
2017-11-11T23:35:02.960Z,4.0
2017-11-11T23:40:02.759Z,4.0
2017-11-11T23:45:02.456Z,3.7
2017-11-11T23:50:03.035Z,3.7
2017-11-11T23:55:02.702Z,3.7
